Time;durP1;ratioP1;P1;durP2;ratioP2;P2;SDS_P1;SDS_P2;PMS_P1;PMS_P2;Temp;Humidity;BMP_temperature;BMP_pressure;BME280_temperature;BME280_humidity;BME280_pressure;Samples;Min_cycle;Max_cycle;Signal;HPM_P1;HPM_P2
2021/07/25 00:00:02;;;;;;;;;;;23.90;60.80;;;;;;5002620;28;19922;-60
2021/07/25 00:02:28;;;;;;;;;;;23.90;60.80;;;;;;5002895;28;19948;-61
2021/07/25 00:04:53;;;;;;;;;;;23.90;60.80;;;;;;5002484;28;20374;-59
2021/07/25 00:07:19;;;;;;;;;;;23.90;60.90;;;;;;5002513;28;19925;-59
2021/07/25 00:09:44;;;;;;;;;;;23.90;60.90;;;;;;5000559;28;19929;-61
2021/07/25 00:12:11;;;;;;;;;;;23.90;60.90;;;;;;5001258;28;20448;-60
2021/07/25 00:14:37;;;;;;;;;;;23.90;60.90;;;;;;5002833;28;20302;-60
2021/07/25 00:17:02;;;;;;;;;;;23.90;60.90;;;;;;5002492;28;20154;-60
2021/07/25 00:19:28;;;;;;;;;;;23.90;60.90;;;;;;5001723;28;19929;-60
2021/07/25 00:21:54;;;;;;;;;;;23.90;60.90;;;;;;5002469;28;19914;-60
2021/07/25 00:24:24;;;;;;;;;;;23.90;60.90;;;;;;5002160;28;19927;-61
2021/07/25 00:26:50;;;;;;;;;;;23.90;60.90;;;;;;5002583;28;19922;-59
2021/07/25 00:29:16;;;;;;;;;;;23.90;60.90;;;;;;5002094;28;19913;-60
2021/07/25 00:31:41;;;;;;;;;;;23.90;60.90;;;;;;5002257;28;20318;-60
2021/07/25 00:34:06;;;;;;;;;;;23.90;60.90;;;;;;5001586;28;19924;-59
2021/07/25 00:36:32;;;;;;;;;;;23.90;60.90;;;;;;5002420;28;19913;-59
2021/07/25 00:38:57;;;;;;;;;;;23.90;60.90;;;;;;5001599;28;19926;-60
2021/07/25 00:41:23;;;;;;;;;;;23.90;60.90;;;;;;5001436;28;19918;-59
2021/07/25 00:43:48;;;;;;;;;;;23.90;60.90;;;;;;5001817;28;19921;-60
2021/07/25 00:46:14;;;;;;;;;;;23.90;60.90;;;;;;5002137;28;19914;-60
2021/07/25 00:48:39;;;;;;;;;;;23.90;60.90;;;;;;4995064;28;19914;-60
2021/07/25 00:51:05;;;;;;;;;;;23.90;60.90;;;;;;5000996;28;19961;-60
2021/07/25 00:53:32;;;;;;;;;;;23.90;61.00;;;;;;5000968;28;19917;-60
2021/07/25 00:55:57;;;;;;;;;;;23.90;61.10;;;;;;5002481;28;19932;-60
2021/07/25 00:58:23;;;;;;;;;;;23.90;61.10;;;;;;5000410;28;19921;-60
2021/07/25 01:00:48;;;;;;;;;;;23.90;61.10;;;;;;5002209;28;20723;-60
2021/07/25 01:03:23;;;;;;;;;;;23.90;61.10;;;;;;5002383;28;19918;-60
2021/07/25 01:06:00;;;;;;;;;;;23.90;61.10;;;;;;5001968;28;20009;-60
2021/07/25 01:08:37;;;;;;;;;;;23.90;61.00;;;;;;5000278;28;19937;-61
2021/07/25 01:11:03;;;;;;;;;;;23.90;60.90;;;;;;5000941;28;20322;-61
2021/07/25 01:13:30;;;;;;;;;;;23.90;60.80;;;;;;5000734;28;19913;-60
2021/07/25 01:15:59;;;;;;;;;;;23.90;60.90;;;;;;5001674;28;19929;-61
2021/07/25 01:18:24;;;;;;;;;;;23.90;60.90;;;;;;4999738;28;19949;-60
2021/07/25 01:20:51;;;;;;;;;;;23.90;60.90;;;;;;5002051;28;20383;-60
2021/07/25 01:23:16;;;;;;;;;;;23.90;60.90;;;;;;5003653;28;19918;-61
2021/07/25 01:25:42;;;;;;;;;;;23.90;60.90;;;;;;5005648;28;19948;-60
2021/07/25 01:28:10;;;;;;;;;;;23.90;61.10;;;;;;5004238;28;19917;-59
2021/07/25 01:30:37;;;;;;;;;;;23.90;61.10;;;;;;4994478;28;19917;-60
2021/07/25 01:33:03;;;;;;;;;;;23.90;61.10;;;;;;5005399;28;19941;-60
2021/07/25 01:35:28;;;;;;;;;;;23.90;61.10;;;;;;5005275;28;20397;-60
2021/07/25 01:37:54;;;;;;;;;;;23.90;61.10;;;;;;5003269;28;19928;-60
2021/07/25 01:40:22;;;;;;;;;;;23.90;61.20;;;;;;5005356;28;19920;-58
2021/07/25 01:42:47;;;;;;;;;;;23.90;61.30;;;;;;5003914;28;19976;-60
2021/07/25 01:45:13;;;;;;;;;;;23.90;61.20;;;;;;5005435;28;19917;-61
2021/07/25 01:47:38;;;;;;;;;;;23.90;61.40;;;;;;5004712;28;20289;-60
2021/07/25 01:50:04;;;;;;;;;;;23.90;61.30;;;;;;5005122;28;19913;-60
2021/07/25 01:52:30;;;;;;;;;;;23.80;61.20;;;;;;5005058;28;19918;-63
2021/07/25 01:54:55;;;;;;;;;;;23.90;61.30;;;;;;5004768;28;19925;-63
2021/07/25 01:57:20;;;;;;;;;;;23.80;61.20;;;;;;5004756;28;19920;-63
2021/07/25 01:59:46;;;;;;;;;;;23.90;61.30;;;;;;5004073;28;20345;-63
2021/07/25 02:02:11;;;;;;;;;;;23.80;61.20;;;;;;5004727;28;19933;-63
2021/07/25 02:04:37;;;;;;;;;;;23.80;61.20;;;;;;5004581;28;19929;-62
2021/07/25 02:07:04;;;;;;;;;;;23.80;61.20;;;;;;5004436;28;20002;-63
2021/07/25 02:09:29;;;;;;;;;;;23.80;61.20;;;;;;5004125;28;19929;-63
2021/07/25 02:11:55;;;;;;;;;;;23.80;61.20;;;;;;5004578;28;19932;-61
2021/07/25 02:14:20;;;;;;;;;;;23.80;61.10;;;;;;5004140;28;20389;-61
2021/07/25 02:16:45;;;;;;;;;;;23.80;61.10;;;;;;5004361;28;19921;-60
2021/07/25 02:19:11;;;;;;;;;;;23.80;61.00;;;;;;4994412;28;19960;-60
2021/07/25 02:21:36;;;;;;;;;;;23.80;61.00;;;;;;5015693;28;19924;-61
2021/07/25 02:24:02;;;;;;;;;;;23.80;60.90;;;;;;5004438;28;20766;-60
2021/07/25 02:26:27;;;;;;;;;;;23.80;60.80;;;;;;5004008;28;19914;-60
2021/07/25 02:28:53;;;;;;;;;;;23.80;60.80;;;;;;5002102;28;19917;-59
2021/07/25 02:31:18;;;;;;;;;;;23.80;60.80;;;;;;5003797;28;19921;-60
2021/07/25 02:33:44;;;;;;;;;;;23.80;60.70;;;;;;5003711;28;19922;-61
2021/07/25 02:36:09;;;;;;;;;;;23.80;60.70;;;;;;5003562;28;20296;-60
2021/07/25 02:38:35;;;;;;;;;;;23.70;60.70;;;;;;5003803;28;19924;-60
2021/07/25 02:41:00;;;;;;;;;;;23.70;60.60;;;;;;5003840;28;19917;-60
2021/07/25 02:43:26;;;;;;;;;;;23.80;60.60;;;;;;5002437;28;19957;-59
2021/07/25 02:45:51;;;;;;;;;;;23.70;60.50;;;;;;5003483;28;20555;-60
2021/07/25 02:48:17;;;;;;;;;;;23.70;60.50;;;;;;5003401;28;19940;-60
2021/07/25 02:50:42;;;;;;;;;;;23.70;60.50;;;;;;5003469;28;19924;-60
2021/07/25 02:53:08;;;;;;;;;;;23.70;60.50;;;;;;5003949;28;19913;-60
2021/07/25 02:55:33;;;;;;;;;;;23.70;60.50;;;;;;5003674;28;20776;-60
2021/07/25 02:57:58;;;;;;;;;;;23.70;60.50;;;;;;5003235;28;19928;-61
2021/07/25 03:00:25;;;;;;;;;;;23.70;60.60;;;;;;5003304;28;19922;-59
2021/07/25 03:02:50;;;;;;;;;;;23.70;60.60;;;;;;5003546;28;19964;-61
2021/07/25 03:05:16;;;;;;;;;;;23.70;60.60;;;;;;5003127;28;19921;-59
2021/07/25 03:07:41;;;;;;;;;;;23.70;60.70;;;;;;5001599;28;19914;-60
2021/07/25 03:10:07;;;;;;;;;;;23.70;60.60;;;;;;5003964;28;20437;-61
2021/07/25 03:12:32;;;;;;;;;;;23.70;60.70;;;;;;5003632;28;20004;-60
2021/07/25 03:14:58;;;;;;;;;;;23.70;60.70;;;;;;5003349;28;20414;-63
2021/07/25 03:17:23;;;;;;;;;;;23.70;60.70;;;;;;5003369;28;19914;-59
2021/07/25 03:19:49;;;;;;;;;;;23.70;60.70;;;;;;5002486;28;19932;-60
2021/07/25 03:22:14;;;;;;;;;;;23.70;60.70;;;;;;5001802;28;19914;-61
2021/07/25 03:24:40;;;;;;;;;;;23.70;60.80;;;;;;5003204;28;19941;-60
2021/07/25 03:27:05;;;;;;;;;;;23.70;60.80;;;;;;5003278;28;20302;-61
2021/07/25 03:29:30;;;;;;;;;;;23.70;60.70;;;;;;5002228;28;19989;-60
2021/07/25 03:31:56;;;;;;;;;;;23.80;60.80;;;;;;5002786;28;19913;-60
2021/07/25 03:34:21;;;;;;;;;;;23.70;60.70;;;;;;5002508;28;19917;-60
2021/07/25 03:36:47;;;;;;;;;;;23.70;60.70;;;;;;5000823;28;20348;-60
2021/07/25 03:39:13;;;;;;;;;;;23.80;60.70;;;;;;4997982;28;20370;-60
2021/07/25 03:41:39;;;;;;;;;;;23.70;60.60;;;;;;5002954;28;20347;-60
2021/07/25 03:44:04;;;;;;;;;;;23.80;60.70;;;;;;5001840;28;20833;-61
2021/07/25 03:46:30;;;;;;;;;;;23.80;60.60;;;;;;5002347;28;20293;-59
2021/07/25 03:48:55;;;;;;;;;;;23.80;60.60;;;;;;5002039;28;19968;-60
2021/07/25 03:51:21;;;;;;;;;;;23.80;60.50;;;;;;5002216;28;19924;-60
2021/07/25 03:53:46;;;;;;;;;;;23.70;60.40;;;;;;5001865;28;19953;-60
2021/07/25 03:56:12;;;;;;;;;;;23.70;60.40;;;;;;5002608;28;20357;-59
2021/07/25 03:58:37;;;;;;;;;;;23.70;60.30;;;;;;5000588;28;19924;-61
2021/07/25 04:01:03;;;;;;;;;;;23.70;60.20;;;;;;5001575;28;19957;-60
2021/07/25 04:03:28;;;;;;;;;;;23.70;60.10;;;;;;5002431;28;20385;-60
2021/07/25 04:05:53;;;;;;;;;;;23.70;60.10;;;;;;5002073;28;19952;-60
2021/07/25 04:08:19;;;;;;;;;;;23.70;60.00;;;;;;5001887;28;19977;-60
2021/07/25 04:10:47;;;;;;;;;;;23.70;59.90;;;;;;5002174;28;19917;-59
2021/07/25 04:13:13;;;;;;;;;;;23.70;60.00;;;;;;5001913;28;19921;-60
2021/07/25 04:15:42;;;;;;;;;;;23.70;59.90;;;;;;5002364;28;19914;-60
2021/07/25 04:18:07;;;;;;;;;;;23.70;60.00;;;;;;5001342;28;20740;-60
2021/07/25 04:20:33;;;;;;;;;;;23.70;59.90;;;;;;5032287;23;19968;-61
2021/07/25 04:22:59;;;;;;;;;;;23.70;59.90;;;;;;5019348;28;19918;-59
2021/07/25 04:25:24;;;;;;;;;;;23.70;59.90;;;;;;5019420;28;19964;-59
2021/07/25 04:27:50;;;;;;;;;;;23.70;59.90;;;;;;5019004;28;20019;-60
2021/07/25 04:30:16;;;;;;;;;;;23.70;60.60;;;;;;5019509;28;19914;-56
2021/07/25 04:32:41;;;;;;;;;;;23.70;59.90;;;;;;5019458;28;19914;-60
2021/07/25 04:35:08;;;;;;;;;;;23.70;60.00;;;;;;5019542;28;19913;-60
2021/07/25 04:37:36;;;;;;;;;;;23.70;60.10;;;;;;5018955;28;19913;-60
2021/07/25 04:40:01;;;;;;;;;;;23.70;60.10;;;;;;5019511;28;20353;-58
2021/07/25 04:42:27;;;;;;;;;;;23.70;60.20;;;;;;5020414;28;19971;-60
2021/07/25 04:44:52;;;;;;;;;;;23.70;60.30;;;;;;5017615;28;19940;-60
2021/07/25 04:47:19;;;;;;;;;;;23.70;60.20;;;;;;5019968;28;19921;-60
2021/07/25 04:50:03;;;;;;;;;;;23.70;60.20;;;;;;5018914;28;20553;-59
2021/07/25 04:52:30;;;;;;;;;;;23.70;60.20;;;;;;5020245;28;19920;-61
2021/07/25 04:54:55;;;;;;;;;;;23.70;60.30;;;;;;5018277;28;19928;-59
2021/07/25 04:57:21;;;;;;;;;;;23.70;60.30;;;;;;5020020;28;19917;-59
2021/07/25 04:59:47;;;;;;;;;;;23.60;60.30;;;;;;5021818;28;19936;-58
2021/07/25 05:02:14;;;;;;;;;;;23.70;60.30;;;;;;5019805;28;19920;-61
2021/07/25 05:04:40;;;;;;;;;;;23.70;60.40;;;;;;5037103;28;19913;-54
2021/07/25 05:07:05;;;;;;;;;;;23.70;60.40;;;;;;5046055;28;19920;-61
2021/07/25 05:09:31;;;;;;;;;;;23.70;60.40;;;;;;5040004;28;19917;-59
2021/07/25 05:11:59;;;;;;;;;;;23.70;60.50;;;;;;5035845;28;19920;-57
2021/07/25 05:14:46;;;;;;;;;;;23.70;60.50;;;;;;5034448;28;19914;-59
2021/07/25 05:17:12;;;;;;;;;;;23.70;60.60;;;;;;5020422;28;20703;-59
2021/07/25 05:19:51;;;;;;;;;;;23.70;60.70;;;;;;5031665;28;19928;-58
2021/07/25 05:22:23;;;;;;;;;;;23.70;60.60;;;;;;5031848;28;19913;-59
2021/07/25 05:24:48;;;;;;;;;;;23.70;60.70;;;;;;5034971;28;19933;-60
2021/07/25 05:27:20;;;;;;;;;;;23.70;60.60;;;;;;5035643;28;20188;-58
2021/07/25 05:29:46;;;;;;;;;;;23.70;60.70;;;;;;5034598;28;19932;-56
2021/07/25 05:32:12;;;;;;;;;;;23.70;60.60;;;;;;5037245;28;19913;-58
2021/07/25 05:34:37;;;;;;;;;;;23.70;60.60;;;;;;5034539;28;19917;-59
2021/07/25 05:37:03;;;;;;;;;;;23.70;60.70;;;;;;5037158;28;19916;-59
2021/07/25 05:39:28;;;;;;;;;;;23.70;60.70;;;;;;5034211;28;20378;-59
2021/07/25 05:41:54;;;;;;;;;;;23.70;60.80;;;;;;5031771;28;20308;-59
2021/07/25 05:44:19;;;;;;;;;;;23.70;60.80;;;;;;5040407;28;19956;-59
2021/07/25 05:46:45;;;;;;;;;;;23.70;61.00;;;;;;5045183;28;19917;-57
2021/07/25 05:49:10;;;;;;;;;;;23.70;61.20;;;;;;5041599;28;20645;-55
2021/07/25 05:51:36;;;;;;;;;;;23.70;61.20;;;;;;5045233;28;19917;-60
2021/07/25 05:54:02;;;;;;;;;;;23.70;61.20;;;;;;5043878;28;19932;-59
2021/07/25 05:56:27;;;;;;;;;;;23.70;61.10;;;;;;5044565;28;20143;-60
2021/07/25 05:58:53;;;;;;;;;;;23.70;61.10;;;;;;5044154;28;19927;-57
2021/07/25 06:01:18;;;;;;;;;;;23.70;61.00;;;;;;5044128;28;19966;-58
2021/07/25 06:03:43;;;;;;;;;;;23.70;61.00;;;;;;5044446;28;20172;-59
2021/07/25 06:06:09;;;;;;;;;;;23.70;61.00;;;;;;5045094;28;20041;-60
2021/07/25 06:08:34;;;;;;;;;;;23.70;61.10;;;;;;5043626;28;20639;-60
2021/07/25 06:11:00;;;;;;;;;;;23.70;61.00;;;;;;5044289;28;19975;-61
2021/07/25 06:13:25;;;;;;;;;;;23.80;61.10;;;;;;5044428;28;19924;-61
2021/07/25 06:15:51;;;;;;;;;;;23.80;61.20;;;;;;5043812;28;20385;-60
2021/07/25 06:18:16;;;;;;;;;;;23.70;61.20;;;;;;5043807;28;19917;-60
2021/07/25 06:20:42;;;;;;;;;;;23.70;61.30;;;;;;5044089;28;19943;-61
2021/07/25 06:23:09;;;;;;;;;;;23.80;61.40;;;;;;5044663;28;20433;-60
2021/07/25 06:25:35;;;;;;;;;;;23.80;61.40;;;;;;5043935;28;19969;-61
2021/07/25 06:28:01;;;;;;;;;;;23.80;61.50;;;;;;5043483;28;20373;-60
2021/07/25 06:30:26;;;;;;;;;;;23.70;61.50;;;;;;5043816;28;19924;-61
2021/07/25 06:32:56;;;;;;;;;;;23.80;61.60;;;;;;5043879;28;19917;-59
2021/07/25 06:35:21;;;;;;;;;;;23.80;61.70;;;;;;5043875;28;19920;-59
2021/07/25 06:37:47;;;;;;;;;;;23.80;61.80;;;;;;5043322;28;19913;-60
2021/07/25 06:40:13;;;;;;;;;;;23.80;61.80;;;;;;5042122;28;19950;-59
2021/07/25 06:42:38;;;;;;;;;;;23.80;61.80;;;;;;5044247;28;20404;-59
2021/07/25 06:45:04;;;;;;;;;;;23.80;61.80;;;;;;5043430;28;19923;-60
2021/07/25 06:47:29;;;;;;;;;;;23.80;61.80;;;;;;5043887;28;19917;-57
2021/07/25 06:49:55;;;;;;;;;;;23.80;61.80;;;;;;5043048;28;20419;-58
2021/07/25 06:52:20;;;;;;;;;;;23.80;61.80;;;;;;5043749;28;19920;-56
2021/07/25 06:54:45;;;;;;;;;;;23.80;61.80;;;;;;5043642;28;19921;-59
2021/07/25 06:57:11;;;;;;;;;;;23.80;61.80;;;;;;5043698;28;19917;-59
2021/07/25 06:59:36;;;;;;;;;;;23.80;61.80;;;;;;5043262;28;20388;-59
2021/07/25 07:02:02;;;;;;;;;;;23.80;61.80;;;;;;5043808;28;19924;-59
2021/07/25 07:04:27;;;;;;;;;;;23.80;61.80;;;;;;5043542;28;20004;-59
2021/07/25 07:06:53;;;;;;;;;;;23.80;61.80;;;;;;5043643;28;19916;-58
2021/07/25 07:09:19;;;;;;;;;;;23.80;61.70;;;;;;5042991;28;19913;-60
2021/07/25 07:11:44;;;;;;;;;;;23.80;61.60;;;;;;5043353;28;19924;-60
2021/07/25 07:14:10;;;;;;;;;;;23.80;61.70;;;;;;5043379;28;19917;-60
2021/07/25 07:16:35;;;;;;;;;;;23.80;61.60;;;;;;5041583;28;19921;-61
2021/07/25 07:19:00;;;;;;;;;;;23.80;61.60;;;;;;5042228;28;19930;-58
2021/07/25 07:21:26;;;;;;;;;;;23.90;61.70;;;;;;5042554;28;19920;-60
2021/07/25 07:23:51;;;;;;;;;;;23.80;61.70;;;;;;5042986;28;19913;-60
2021/07/25 07:26:17;;;;;;;;;;;23.80;61.60;;;;;;5042909;28;20383;-60
2021/07/25 07:28:42;;;;;;;;;;;23.80;61.60;;;;;;5042536;28;19921;-60
2021/07/25 07:31:08;;;;;;;;;;;23.80;61.70;;;;;;5043050;28;19963;-59
2021/07/25 07:33:33;;;;;;;;;;;23.80;61.60;;;;;;5042908;28;20575;-57
2021/07/25 07:35:59;;;;;;;;;;;23.80;61.40;;;;;;5042977;28;19917;-59
2021/07/25 07:38:24;;;;;;;;;;;23.80;61.30;;;;;;5042331;28;20461;-57
2021/07/25 07:40:50;;;;;;;;;;;23.90;61.30;;;;;;5042793;28;19912;-59
2021/07/25 07:43:17;;;;;;;;;;;23.90;61.20;;;;;;5042646;28;19913;-60
2021/07/25 07:45:42;;;;;;;;;;;23.80;61.20;;;;;;5042511;28;19920;-59
2021/07/25 07:48:07;;;;;;;;;;;23.80;61.10;;;;;;5041165;28;20313;-58
2021/07/25 07:50:33;;;;;;;;;;;23.80;61.10;;;;;;5042716;28;20130;-59
2021/07/25 07:52:58;;;;;;;;;;;23.90;61.20;;;;;;5043090;28;19998;-58
2021/07/25 07:55:24;;;;;;;;;;;23.90;61.10;;;;;;5042077;28;19923;-58
2021/07/25 07:57:49;;;;;;;;;;;23.90;61.20;;;;;;5040666;28;19916;-57
2021/07/25 08:00:15;;;;;;;;;;;23.90;61.20;;;;;;5042524;28;20446;-57
2021/07/25 08:02:40;;;;;;;;;;;23.80;61.10;;;;;;5043091;28;19924;-56
2021/07/25 08:05:06;;;;;;;;;;;23.90;61.20;;;;;;5042400;28;19963;-58
2021/07/25 08:07:31;;;;;;;;;;;23.90;61.20;;;;;;5042599;28;19921;-59
2021/07/25 08:09:57;;;;;;;;;;;23.90;61.20;;;;;;5042219;28;20300;-58
2021/07/25 08:12:22;;;;;;;;;;;23.90;61.20;;;;;;5042170;28;19955;-57
2021/07/25 08:14:48;;;;;;;;;;;23.90;61.20;;;;;;5042202;28;20400;-54
2021/07/25 08:17:13;;;;;;;;;;;23.90;61.20;;;;;;5042221;28;19913;-56
2021/07/25 08:19:38;;;;;;;;;;;23.90;61.20;;;;;;5041948;28;19975;-56
2021/07/25 08:22:07;;;;;;;;;;;23.80;61.20;;;;;;5042476;28;19944;-55
2021/07/25 08:24:33;;;;;;;;;;;23.80;61.20;;;;;;5042412;28;19963;-58
2021/07/25 08:26:58;;;;;;;;;;;23.80;61.20;;;;;;5039637;28;20458;-58
2021/07/25 08:29:25;;;;;;;;;;;23.90;61.40;;;;;;5032201;28;19916;-58
2021/07/25 08:31:50;;;;;;;;;;;23.90;61.30;;;;;;5044334;28;19987;-58
2021/07/25 08:34:16;;;;;;;;;;;23.90;61.20;;;;;;5045804;28;19924;-56
2021/07/25 08:36:43;;;;;;;;;;;23.90;61.30;;;;;;5045319;28;20381;-57
2021/07/25 08:39:08;;;;;;;;;;;23.90;61.30;;;;;;5041466;28;20336;-58
2021/07/25 08:41:36;;;;;;;;;;;23.90;61.30;;;;;;5045461;28;19924;-59
2021/07/25 08:44:19;;;;;;;;;;;23.90;61.40;;;;;;5043925;28;19979;-58
2021/07/25 08:46:45;;;;;;;;;;;23.90;61.40;;;;;;5045532;28;19916;-58
2021/07/25 08:49:11;;;;;;;;;;;23.90;61.30;;;;;;5045356;28;20417;-58
2021/07/25 08:51:38;;;;;;;;;;;23.90;61.40;;;;;;5044115;28;19913;-59
2021/07/25 08:54:04;;;;;;;;;;;23.90;61.40;;;;;;5045424;28;19919;-59
2021/07/25 08:56:30;;;;;;;;;;;23.90;61.40;;;;;;5043641;28;19916;-57
2021/07/25 08:58:56;;;;;;;;;;;23.90;61.40;;;;;;5045320;28;19931;-56
2021/07/25 09:01:22;;;;;;;;;;;23.90;61.40;;;;;;5043800;28;19917;-58
2021/07/25 09:03:47;;;;;;;;;;;23.90;61.40;;;;;;5043467;28;19928;-59
2021/07/25 09:06:13;;;;;;;;;;;23.90;61.40;;;;;;5043681;28;19927;-57
2021/07/25 09:08:38;;;;;;;;;;;23.90;61.40;;;;;;5043522;28;20476;-60
2021/07/25 09:11:05;;;;;;;;;;;23.90;61.40;;;;;;5042933;28;19913;-59
2021/07/25 09:13:31;;;;;;;;;;;23.90;61.50;;;;;;5044656;28;19917;-60
2021/07/25 09:15:56;;;;;;;;;;;23.90;61.50;;;;;;5044759;28;20432;-58
2021/07/25 09:18:22;;;;;;;;;;;23.90;61.40;;;;;;5043792;28;19924;-60
2021/07/25 09:20:47;;;;;;;;;;;23.90;61.40;;;;;;5044254;28;19932;-60
2021/07/25 09:23:13;;;;;;;;;;;23.90;61.40;;;;;;5043162;28;19923;-59
2021/07/25 09:25:39;;;;;;;;;;;23.90;61.60;;;;;;5044097;28;20266;-60
2021/07/25 09:28:08;;;;;;;;;;;23.90;61.50;;;;;;5044004;28;20007;-60
2021/07/25 09:30:33;;;;;;;;;;;23.90;61.50;;;;;;5044178;28;20047;-60
2021/07/25 09:32:59;;;;;;;;;;;23.90;61.50;;;;;;5042804;28;20011;-58
2021/07/25 09:35:24;;;;;;;;;;;23.90;61.60;;;;;;5043863;28;19936;-61
2021/07/25 09:37:53;;;;;;;;;;;23.90;61.60;;;;;;5043850;28;19913;-60
2021/07/25 09:40:25;;;;;;;;;;;23.90;61.60;;;;;;5043919;28;20738;-60
2021/07/25 09:43:04;;;;;;;;;;;23.90;61.60;;;;;;5043520;28;19917;-61
2021/07/25 09:45:30;;;;;;;;;;;23.90;61.60;;;;;;5042533;28;20654;-60
2021/07/25 09:47:55;;;;;;;;;;;23.90;61.60;;;;;;5043552;28;19940;-57
2021/07/25 09:50:26;;;;;;;;;;;23.90;61.60;;;;;;5042411;28;19990;-59
2021/07/25 09:52:52;;;;;;;;;;;23.90;61.60;;;;;;5043943;28;19917;-54
2021/07/25 09:55:28;;;;;;;;;;;23.90;61.70;;;;;;5036718;28;20523;-59
2021/07/25 09:57:54;;;;;;;;;;;24.00;61.70;;;;;;5034885;28;19924;-58
2021/07/25 10:00:20;;;;;;;;;;;23.90;61.70;;;;;;5050030;28;19917;-57
2021/07/25 10:02:45;;;;;;;;;;;24.00;61.70;;;;;;5033036;28;19939;-59
2021/07/25 10:05:11;;;;;;;;;;;23.90;61.70;;;;;;5051142;28;19917;-60
2021/07/25 10:07:36;;;;;;;;;;;23.90;61.80;;;;;;5032777;28;21726;-59
2021/07/25 10:10:02;;;;;;;;;;;24.00;61.80;;;;;;5054316;28;20515;-58
2021/07/25 10:12:28;;;;;;;;;;;24.00;61.80;;;;;;5034709;28;19942;-57
2021/07/25 10:14:54;;;;;;;;;;;23.90;62.30;;;;;;5056187;28;19920;-59
2021/07/25 10:17:20;;;;;;;;;;;24.00;61.70;;;;;;5032059;28;19924;-58
2021/07/25 10:19:45;;;;;;;;;;;24.00;61.70;;;;;;5045610;23;19926;-61
2021/07/25 10:22:11;;;;;;;;;;;24.00;61.70;;;;;;5035746;28;19939;-59
2021/07/25 10:24:40;;;;;;;;;;;24.00;61.70;;;;;;5022044;28;19917;-61
2021/07/25 10:27:05;;;;;;;;;;;24.00;61.70;;;;;;5016448;28;19928;-61
2021/07/25 10:29:31;;;;;;;;;;;24.00;61.80;;;;;;5021102;28;19917;-59
2021/07/25 10:31:56;;;;;;;;;;;24.00;61.70;;;;;;5019743;28;19913;-61
2021/07/25 10:34:22;;;;;;;;;;;24.00;61.80;;;;;;5022192;28;19913;-61
2021/07/25 10:36:51;;;;;;;;;;;24.00;61.70;;;;;;5022865;28;19970;-61
2021/07/25 10:39:16;;;;;;;;;;;24.00;61.70;;;;;;5021785;28;19979;-60
2021/07/25 10:41:41;;;;;;;;;;;24.00;61.70;;;;;;5021408;28;19917;-61
2021/07/25 10:44:07;;;;;;;;;;;24.00;61.80;;;;;;5022432;28;19917;-61
2021/07/25 10:46:33;;;;;;;;;;;24.00;61.80;;;;;;5021968;28;19939;-59
2021/07/25 10:48:59;;;;;;;;;;;24.00;61.80;;;;;;5022046;28;19918;-60
2021/07/25 10:51:24;;;;;;;;;;;24.10;61.80;;;;;;5021572;28;19943;-61
2021/07/25 10:53:50;;;;;;;;;;;24.10;61.80;;;;;;5019796;28;20408;-59
2021/07/25 10:56:15;;;;;;;;;;;24.10;61.80;;;;;;5020636;28;19917;-61
2021/07/25 10:58:53;;;;;;;;;;;24.10;61.70;;;;;;5021504;28;19953;-58
2021/07/25 11:01:37;;;;;;;;;;;24.10;61.80;;;;;;5022260;28;20207;-60
2021/07/25 11:04:03;;;;;;;;;;;24.10;61.80;;;;;;5023111;28;19940;-61
2021/07/25 11:06:28;;;;;;;;;;;24.10;61.80;;;;;;5020492;28;19947;-60
2021/07/25 11:08:54;;;;;;;;;;;24.10;61.70;;;;;;5021257;28;19978;-62
2021/07/25 11:11:44;;;;;;;;;;;24.10;61.70;;;;;;5019387;28;19924;-60
2021/07/25 11:14:09;;;;;;;;;;;24.10;61.70;;;;;;5020648;28;19952;-61
2021/07/25 11:16:35;;;;;;;;;;;24.10;61.70;;;;;;5020726;28;19986;-64
2021/07/25 11:19:00;;;;;;;;;;;24.10;61.70;;;;;;5021650;28;19932;-63
2021/07/25 11:21:41;;;;;;;;;;;24.10;61.70;;;;;;5020875;28;19952;-60
2021/07/25 11:24:18;;;;;;;;;;;24.10;61.70;;;;;;5022789;28;19917;-62
2021/07/25 11:26:44;;;;;;;;;;;24.10;61.70;;;;;;5021236;28;20016;-60
2021/07/25 11:29:10;;;;;;;;;;;24.10;61.70;;;;;;5022183;28;19992;-60
2021/07/25 11:31:39;;;;;;;;;;;24.10;61.70;;;;;;5021729;28;19940;-61
2021/07/25 11:34:11;;;;;;;;;;;24.10;61.70;;;;;;5022475;28;19920;-60
2021/07/25 11:36:36;;;;;;;;;;;24.10;61.70;;;;;;5022137;28;19924;-60
2021/07/25 11:39:02;;;;;;;;;;;24.10;61.70;;;;;;5021931;28;19921;-60
2021/07/25 11:41:28;;;;;;;;;;;24.10;61.70;;;;;;5022505;28;19923;-60
2021/07/25 11:44:07;;;;;;;;;;;24.20;61.70;;;;;;5021082;28;19945;-62
2021/07/25 11:46:35;;;;;;;;;;;24.10;61.70;;;;;;5021006;28;19967;-60
2021/07/25 11:49:01;;;;;;;;;;;24.20;61.70;;;;;;5021312;28;22520;-60
2021/07/25 11:51:27;;;;;;;;;;;24.10;61.60;;;;;;5021939;28;19913;-60
2021/07/25 11:53:52;;;;;;;;;;;24.20;61.70;;;;;;5021024;28;19924;-62
2021/07/25 11:56:18;;;;;;;;;;;24.20;61.60;;;;;;5020282;28;19928;-61
2021/07/25 11:58:57;;;;;;;;;;;24.20;61.60;;;;;;5019410;28;20629;-61
2021/07/25 12:01:23;;;;;;;;;;;24.20;61.70;;;;;;5021996;28;20496;-62
2021/07/25 12:03:49;;;;;;;;;;;24.20;61.60;;;;;;5020708;28;19917;-60
2021/07/25 12:06:14;;;;;;;;;;;24.20;61.60;;;;;;5021036;28;19967;-60
2021/07/25 12:08:40;;;;;;;;;;;24.20;61.60;;;;;;5019924;28;19921;-60
2021/07/25 12:11:05;;;;;;;;;;;24.20;61.60;;;;;;5021805;28;19913;-62
2021/07/25 12:13:30;;;;;;;;;;;24.20;61.60;;;;;;5021645;28;20701;-59
2021/07/25 12:16:02;;;;;;;;;;;24.20;61.50;;;;;;5021352;28;19917;-61
2021/07/25 12:18:29;;;;;;;;;;;24.20;61.50;;;;;;5020764;28;19921;-60
2021/07/25 12:20:54;;;;;;;;;;;24.20;61.50;;;;;;5035771;28;19921;-61
2021/07/25 12:23:34;;;;;;;;;;;24.20;61.40;;;;;;5020226;28;19924;-60
2021/07/25 12:25:59;;;;;;;;;;;24.20;61.50;;;;;;5003261;28;19913;-61
2021/07/25 12:28:25;;;;;;;;;;;24.20;61.40;;;;;;5020484;28;19917;-59
2021/07/25 12:30:54;;;;;;;;;;;24.20;61.40;;;;;;5021412;28;19913;-60
2021/07/25 12:33:32;;;;;;;;;;;24.20;61.30;;;;;;5019761;28;20302;-62
2021/07/25 12:36:13;;;;;;;;;;;24.20;61.30;;;;;;5021471;28;19920;-61
2021/07/25 12:38:38;;;;;;;;;;;24.20;61.90;;;;;;5019680;28;20523;-59
2021/07/25 12:41:04;;;;;;;;;;;24.30;61.20;;;;;;5018134;28;20552;-61
2021/07/25 12:43:29;;;;;;;;;;;24.20;61.10;;;;;;5021290;28;19920;-61
2021/07/25 12:45:55;;;;;;;;;;;24.20;61.10;;;;;;5021143;28;19917;-60
2021/07/25 12:48:20;;;;;;;;;;;24.20;61.10;;;;;;5019636;28;19931;-62
2021/07/25 12:50:52;;;;;;;;;;;24.30;61.10;;;;;;5020214;28;19920;-60
2021/07/25 12:53:18;;;;;;;;;;;24.20;61.10;;;;;;5020683;28;20280;-61
2021/07/25 12:55:44;;;;;;;;;;;24.30;61.10;;;;;;5021399;28;19932;-61
2021/07/25 12:58:09;;;;;;;;;;;24.30;61.10;;;;;;5020188;28;19987;-60
2021/07/25 13:00:47;;;;;;;;;;;24.30;61.00;;;;;;5018521;28;19927;-61
2021/07/25 13:05:57;;;;;;;;;;;24.30;61.00;;;;;;5020563;28;19997;-61
2021/07/25 13:08:22;;;;;;;;;;;24.30;61.10;;;;;;5020316;28;20529;-61
2021/07/25 13:10:48;;;;;;;;;;;24.30;61.10;;;;;;5019749;28;19920;-60
2021/07/25 13:13:13;;;;;;;;;;;24.30;61.00;;;;;;5020609;28;19913;-61
2021/07/25 13:15:38;;;;;;;;;;;24.30;61.00;;;;;;5020955;28;20444;-60
2021/07/25 13:18:04;;;;;;;;;;;24.30;61.00;;;;;;5036099;28;19929;-59
2021/07/25 13:20:29;;;;;;;;;;;24.30;60.90;;;;;;5024060;28;19927;-61
2021/07/25 13:22:55;;;;;;;;;;;24.30;60.90;;;;;;5024598;28;19917;-61
2021/07/25 13:25:20;;;;;;;;;;;24.30;60.90;;;;;;5024261;28;19932;-59
2021/07/25 13:27:46;;;;;;;;;;;24.30;61.00;;;;;;5023582;28;19921;-61
2021/07/25 13:30:11;;;;;;;;;;;24.30;60.90;;;;;;5024570;28;19924;-59
2021/07/25 13:32:37;;;;;;;;;;;24.30;61.00;;;;;;5022513;28;19975;-61
2021/07/25 13:35:02;;;;;;;;;;;24.30;60.90;;;;;;5024271;28;19917;-61
2021/07/25 13:37:27;;;;;;;;;;;24.30;61.00;;;;;;5023390;28;19920;-61
2021/07/25 13:39:53;;;;;;;;;;;24.30;61.00;;;;;;5022688;28;19917;-60
2021/07/25 13:42:18;;;;;;;;;;;24.30;61.10;;;;;;5024024;28;19945;-61
2021/07/25 13:44:44;;;;;;;;;;;24.30;61.10;;;;;;5023865;28;20526;-60
2021/07/25 13:47:09;;;;;;;;;;;24.30;61.20;;;;;;5023926;28;19928;-61
2021/07/25 13:49:35;;;;;;;;;;;24.30;61.20;;;;;;5022429;28;19913;-59
2021/07/25 13:52:00;;;;;;;;;;;24.40;61.30;;;;;;5021807;28;19917;-60
2021/07/25 13:54:26;;;;;;;;;;;24.30;61.30;;;;;;5023100;28;20769;-60
2021/07/25 13:56:51;;;;;;;;;;;24.30;61.30;;;;;;5021702;28;19967;-60
2021/07/25 13:59:17;;;;;;;;;;;24.40;61.40;;;;;;5023320;28;19929;-61
2021/07/25 14:01:42;;;;;;;;;;;24.40;61.40;;;;;;5023517;28;20353;-59
2021/07/25 14:04:08;;;;;;;;;;;24.30;61.30;;;;;;5022707;28;19940;-59
2021/07/25 14:06:33;;;;;;;;;;;24.40;62.00;;;;;;5022278;28;20348;-60
2021/07/25 14:08:59;;;;;;;;;;;24.40;61.40;;;;;;5022666;28;19923;-61
2021/07/25 14:11:24;;;;;;;;;;;24.30;61.40;;;;;;5023187;28;19932;-61
2021/07/25 14:13:50;;;;;;;;;;;24.40;61.40;;;;;;5022987;28;19913;-61